Time;durP1;ratioP1;P1;durP2;ratioP2;P2;SDS_P1;SDS_P2;PMS_P1;PMS_P2;Temp;Humidity;BMP_temperature;BMP_pressure;BME280_temperature;BME280_humidity;BME280_pressure;Samples;Min_cycle;Max_cycle;Signal;HPM_P1;HPM_P2
2022/01/12 00:01:40;;;;;;;39.27;25.13;;;;;;;3.54;100.00;103503.81;4992668;28;20480;-77
2022/01/12 00:04:05;;;;;;;37.67;22.70;;;;;;;2.59;100.00;103347.41;4996140;28;20950;-76
2022/01/12 00:06:31;;;;;;;31.73;22.17;;;;;;;3.13;100.00;103446.88;4997908;28;20444;-78
2022/01/12 00:08:59;;;;;;;37.37;22.63;;;;;;;3.20;100.00;103435.91;4995047;28;20228;-79
2022/01/12 00:11:24;;;;;;;33.97;21.33;;;;;;;3.20;100.00;103465.94;4997131;28;20189;-79
2022/01/12 00:13:51;;;;;;;34.53;21.93;;;;;;;3.31;100.00;103487.41;4999198;28;20471;-77
2022/01/12 00:16:17;;;;;;;34.43;22.07;;;;;;;3.49;100.00;103517.34;5000558;28;20189;-78
2022/01/12 00:18:45;;;;;;;37.80;23.03;;;;;;;3.07;100.00;103431.31;5001165;28;20552;-77
2022/01/12 00:21:11;;;;;;;44.03;24.40;;;;;;;3.14;100.00;103432.66;5002866;28;20560;-77
2022/01/12 00:23:38;;;;;;;35.47;22.13;;;;;;;2.89;100.00;103379.28;5003353;28;20510;-77
2022/01/12 00:26:08;;;;;;;36.30;24.00;;;;;;;3.17;100.00;103463.44;5002675;28;20436;-77
2022/01/12 00:34:05;;;;;;;43.70;25.27;;;;;;;3.13;100.00;103425.66;4999937;28;20489;-78
2022/01/12 00:36:32;;;;;;;42.57;24.13;;;;;;;3.57;100.00;103493.88;5000918;28;21168;-77
2022/01/12 00:38:59;;;;;;;41.97;24.27;;;;;;;3.57;100.00;103471.81;4998486;28;20468;-78
2022/01/12 00:41:25;;;;;;;39.20;24.30;;;;;;;3.34;100.00;103447.44;5000458;28;20446;-78
2022/01/12 00:43:57;;;;;;;52.47;26.90;;;;;;;3.70;100.00;103491.38;5001239;28;20820;-78
2022/01/12 00:46:23;;;;;;;41.10;25.70;;;;;;;3.76;100.00;103508.75;5001180;28;20512;-78
2022/01/12 00:48:49;;;;;;;40.90;24.77;;;;;;;3.83;100.00;103504.81;5000636;28;20460;-78
2022/01/12 00:51:14;;;;;;;43.70;25.87;;;;;;;2.65;100.00;103320.56;4997472;28;20462;-78
2022/01/12 00:53:40;;;;;;;45.37;25.73;;;;;;;3.78;100.00;103478.50;5003678;28;20193;-78
2022/01/12 00:56:06;;;;;;;40.57;24.80;;;;;;;3.19;100.00;103392.63;4998961;28;20261;-78
2022/01/12 00:58:34;;;;;;;40.80;26.20;;;;;;;3.60;100.00;103437.97;4992043;28;20209;-78
2022/01/12 01:00:59;;;;;;;47.87;25.23;;;;;;;3.42;100.00;103449.66;4988815;28;20490;-77
2022/01/12 01:03:24;;;;;;;53.63;26.10;;;;;;;3.00;100.00;103330.97;4998848;28;20519;-78
2022/01/12 01:05:50;;;;;;;47.67;25.53;;;;;;;3.79;100.00;103496.16;4996838;28;20664;-78
2022/01/12 01:08:16;;;;;;;48.60;28.27;;;;;;;3.87;100.00;103500.16;4994650;28;20185;-77
2022/01/12 01:10:46;;;;;;;53.70;27.57;;;;;;;3.79;100.00;103503.25;4997344;28;20739;-78
2022/01/12 01:13:16;;;;;;;52.50;27.90;;;;;;;3.91;100.00;103489.28;4991787;28;20447;-78
2022/01/12 01:26:24;;;;;;;56.93;28.83;;;;;;;3.99;100.00;103529.53;4994929;28;20435;-78
2022/01/12 01:28:50;;;;;;;55.57;26.67;;;;;;;3.91;100.00;103515.00;4997539;28;20456;-77
2022/01/12 01:31:15;;;;;;;49.87;25.87;;;;;;;3.85;100.00;103519.69;4996821;28;20195;-78
2022/01/12 01:33:41;;;;;;;44.83;25.03;;;;;;;3.90;100.00;103514.09;4998295;28;20283;-78
2022/01/12 01:36:06;;;;;;;49.13;27.00;;;;;;;3.88;100.00;103545.22;4997875;28;20180;-78
2022/01/12 01:38:32;;;;;;;50.47;27.43;;;;;;;3.51;100.00;103502.19;4996725;28;20299;-78
2022/01/12 01:40:57;;;;;;;48.03;25.83;;;;;;;3.83;100.00;103556.09;4996694;28;20284;-79
2022/01/12 01:54:03;;;;;;;49.93;25.60;;;;;;;3.86;100.00;103557.72;4997470;28;20974;-78
2022/01/12 01:56:30;;;;;;;51.13;25.67;;;;;;;3.98;100.00;103566.78;5001473;28;20444;-79
2022/01/12 01:58:56;;;;;;;47.97;26.07;;;;;;;3.78;100.00;103528.09;4998503;28;20462;-78
2022/01/12 02:01:22;;;;;;;49.43;26.30;;;;;;;3.95;100.00;103582.91;4992574;28;20482;-78
2022/01/12 02:03:47;;;;;;;42.43;25.50;;;;;;;4.00;100.00;103578.19;5001734;28;20204;-81
2022/01/12 02:06:13;;;;;;;46.50;23.80;;;;;;;3.46;100.00;103511.38;5012295;28;20440;-80
2022/01/12 02:08:38;;;;;;;42.57;24.83;;;;;;;4.01;100.00;103601.97;4998990;28;20595;-79
2022/01/12 02:11:04;;;;;;;47.53;24.53;;;;;;;4.00;100.00;103610.06;5002895;28;20209;-79
2022/01/12 02:13:31;;;;;;;45.83;25.20;;;;;;;3.62;100.00;103549.38;5007748;28;20245;-79
2022/01/12 02:15:58;;;;;;;44.77;26.00;;;;;;;3.48;100.00;103533.38;5012929;28;20209;-83
2022/01/12 02:39:45;;;;;;;37.97;23.63;;;;;;;3.90;100.00;103652.19;5022816;28;20451;-82
2022/01/12 02:40:05;;;;;;;40.40;23.13;;;;;;;4.07;100.00;103643.28;5002181;28;20559;-77
2022/01/12 02:42:31;;;;;;;38.30;23.67;;;;;;;3.02;100.00;103480.22;5005945;28;20575;-78
2022/01/12 02:50:45;;;;;;;35.50;22.77;;;;;;;3.97;100.00;103627.00;5009408;28;21081;-78
2022/01/12 02:55:57;;;;;;;35.30;23.10;;;;;;;3.98;100.00;103596.00;5000841;28;20459;-77
2022/01/12 02:58:22;;;;;;;34.73;22.20;;;;;;;3.60;100.00;103562.72;4999904;28;20435;-76
2022/01/12 03:03:41;;;;;;;34.93;23.27;;;;;;;3.87;100.00;103585.13;4999240;28;20192;-77
2022/01/12 03:06:08;;;;;;;35.57;22.73;;;;;;;3.91;100.00;103560.97;5001848;28;20531;-78
2022/01/12 03:08:37;;;;;;;38.00;21.60;;;;;;;4.10;100.00;103582.00;5003529;28;20447;-76
2022/01/12 03:11:08;;;;;;;37.50;22.53;;;;;;;3.39;100.00;103490.47;4993859;23;20496;-85
2022/01/12 03:13:34;;;;;;;37.13;22.40;;;;;;;3.79;100.00;103573.16;4985082;28;20444;-85
2022/01/12 03:16:02;;;;;;;36.10;22.40;;;;;;;3.82;100.00;103562.38;4965743;28;20448;-86
2022/01/12 03:18:28;;;;;;;31.40;20.77;;;;;;;3.43;100.00;103516.84;4971841;28;20528;-85
2022/01/12 03:20:53;;;;;;;30.23;19.80;;;;;;;2.91;100.00;103425.13;4985187;28;20567;-85
2022/01/12 03:23:19;;;;;;;25.67;18.87;;;;;;;3.22;100.00;103508.28;4982660;28;20190;-85
2022/01/12 03:25:44;;;;;;;30.87;20.80;;;;;;;3.93;100.00;103612.19;4962775;28;20737;-85
2022/01/12 03:28:10;;;;;;;31.20;20.30;;;;;;;3.71;100.00;103580.69;4967369;28;20185;-84
2022/01/12 03:30:47;;;;;;;27.53;18.90;;;;;;;3.08;100.00;103470.13;4986289;28;20213;-85
2022/01/12 03:33:31;;;;;;;31.60;18.70;;;;;;;2.99;100.00;103491.84;4982996;28;20273;-87
2022/01/12 03:38:41;;;;;;;25.80;17.97;;;;;;;3.06;100.00;103508.28;4975828;28;20467;-86
2022/01/12 03:41:06;;;;;;;22.00;16.60;;;;;;;3.84;100.00;103626.84;4961134;28;20989;-84
2022/01/12 03:43:32;;;;;;;26.10;17.53;;;;;;;2.94;100.00;103492.09;4985365;28;20193;-84
2022/01/12 03:45:58;;;;;;;22.40;16.47;;;;;;;3.32;100.00;103570.50;4983579;28;20189;-85
2022/01/12 03:48:23;;;;;;;23.00;16.10;;;;;;;3.03;100.00;103504.00;4984982;28;20190;-86
2022/01/12 03:50:49;;;;;;;25.67;17.40;;;;;;;3.83;100.00;103630.44;4982728;28;20472;-85
2022/01/12 03:53:15;;;;;;;22.73;16.57;;;;;;;2.83;100.00;103480.38;4966485;28;20189;-85
2022/01/12 03:55:42;;;;;;;25.67;16.07;;;;;;;2.76;100.00;103485.16;4985169;28;20657;-85
2022/01/12 03:58:11;;;;;;;23.03;17.37;;;;;;;3.68;100.00;103630.47;4981119;28;20444;-86
2022/01/12 04:00:40;;;;;;;21.03;15.40;;;;;;;2.18;100.00;103396.41;4979794;28;20479;-87
2022/01/12 04:03:07;;;;;;;22.87;14.90;;;;;;;2.14;100.00;103418.69;4985773;28;20949;-86
2022/01/12 04:08:20;;;;;;;15.10;12.60;;;;;;;3.27;100.00;103581.38;4982519;28;20428;-84
2022/01/12 04:11:00;;;;;;;13.97;12.43;;;;;;;3.09;100.00;103574.41;4978970;28;20472;-85
2022/01/12 04:13:28;;;;;;;14.50;11.67;;;;;;;2.48;100.00;103502.50;4985201;28;20444;-86
2022/01/12 04:15:59;;;;;;;16.20;12.13;;;;;;;2.84;100.00;103553.66;4984882;28;20441;-83
2022/01/12 04:18:51;;;;;;;16.53;12.60;;;;;;;3.59;100.00;103642.44;4963879;28;20525;-85
2022/01/12 04:21:24;;;;;;;13.90;11.53;;;;;;;3.02;100.00;103583.63;4976532;28;20472;-86
2022/01/12 04:23:50;;;;;;;16.00;12.80;;;;;;;2.63;100.00;103523.84;4984704;28;20729;-86
2022/01/12 04:26:15;;;;;;;16.73;12.53;;;;;;;2.21;100.00;103480.97;4983038;28;20538;-86
2022/01/12 04:28:43;;;;;;;15.40;13.17;;;;;;;2.30;100.00;103499.97;4978980;28;20192;-85
2022/01/12 04:31:10;;;;;;;13.90;12.40;;;;;;;2.88;100.00;103526.91;4966266;28;20197;-85
2022/01/12 04:33:40;;;;;;;13.70;12.13;;;;;;;3.27;100.00;103641.50;4982743;28;20443;-83
2022/01/12 04:36:06;;;;;;;16.90;11.97;;;;;;;2.39;100.00;103502.13;4965591;28;20905;-84
2022/01/12 04:38:34;;;;;;;15.40;12.77;;;;;;;1.71;100.00;103414.75;4968147;28;20441;-85
2022/01/12 04:41:07;;;;;;;13.70;12.20;;;;;;;3.22;100.00;103636.47;4984193;28;20480;-87
2022/01/12 04:43:34;;;;;;;14.30;12.50;;;;;;;2.21;100.00;103453.63;4979591;28;20589;-82
2022/01/12 04:48:52;;;;;;;17.00;13.67;;;;;;;3.15;100.00;103596.16;4977036;28;20441;-86
2022/01/12 04:51:18;;;;;;;17.13;14.20;;;;;;;2.54;100.00;103519.03;4984222;28;20937;-83
2022/01/12 04:53:43;;;;;;;18.60;13.70;;;;;;;2.57;100.00;103514.41;4979931;28;20456;-84
2022/01/12 04:56:09;;;;;;;20.27;14.97;;;;;;;3.14;100.00;103589.13;4982562;28;20882;-86
2022/01/12 04:58:34;;;;;;;19.10;13.90;;;;;;;2.89;100.00;103559.56;4982993;28;20196;-84
2022/01/12 05:01:13;;;;;;;21.40;16.20;;;;;;;2.59;100.00;103503.75;4980614;28;20679;-84
2022/01/12 05:14:25;;;;;;;23.33;15.40;;;;;;;2.66;100.00;103505.13;4984804;28;20440;-84
2022/01/12 05:16:51;;;;;;;25.07;15.37;;;;;;;3.59;100.00;103658.38;4977277;28;20452;-84
2022/01/12 05:19:16;;;;;;;23.20;15.17;;;;;;;2.93;100.00;103540.75;4985081;28;20463;-84
2022/01/12 05:21:42;;;;;;;24.67;16.57;;;;;;;2.55;100.00;103478.38;4964512;28;20445;-86
2022/01/12 05:24:10;;;;;;;23.53;15.13;;;;;;;3.77;100.00;103667.97;4981163;28;20571;-83
2022/01/12 05:26:37;;;;;;;23.20;15.33;;;;;;;3.58;100.00;103635.41;4967284;28;20268;-84
2022/01/12 05:29:03;;;;;;;22.50;14.83;;;;;;;3.53;100.00;103629.47;4982273;28;20464;-84
2022/01/12 05:31:29;;;;;;;24.80;15.87;;;;;;;2.56;100.00;103488.88;4978502;28;20479;-86
2022/01/12 05:33:58;;;;;;;22.80;15.37;;;;;;;2.68;100.00;103492.66;4980412;28;20929;-85
2022/01/12 05:36:32;;;;;;;20.17;14.03;;;;;;;3.68;100.00;103670.28;4981367;28;20185;-83
2022/01/12 05:38:59;;;;;;;21.50;14.47;;;;;;;3.61;100.00;103673.25;4980194;28;20432;-85
2022/01/12 05:41:25;;;;;;;23.70;14.67;;;;;;;2.61;100.00;103496.59;4974255;28;20500;-85
2022/01/12 05:43:54;;;;;;;21.80;15.23;;;;;;;2.90;100.00;103572.75;4975221;28;21228;-84
2022/01/12 05:46:24;;;;;;;23.17;14.63;;;;;;;3.71;100.00;103694.84;4977637;28;20445;-86
2022/01/12 05:51:34;;;;;;;21.33;14.73;;;;;;;2.08;100.00;103495.75;4968476;28;20439;-87
2022/01/12 05:54:00;;;;;;;22.63;14.03;;;;;;;3.20;100.00;103656.91;4964612;28;20449;-87
2022/01/12 05:56:25;;;;;;;19.00;13.93;;;;;;;2.73;100.00;103607.25;4959390;28;20539;-85
2022/01/12 05:58:51;;;;;;;19.00;13.43;;;;;;;3.32;100.00;103701.34;4954788;28;20544;-85
2022/01/12 06:01:17;;;;;;;16.57;12.80;;;;;;;2.32;100.00;103525.44;4963008;28;20300;-85
2022/01/12 06:03:43;;;;;;;17.93;12.20;;;;;;;3.36;100.00;103717.97;4957440;28;20456;-86
2022/01/12 06:06:09;;;;;;;14.87;11.20;;;;;;;2.47;100.00;103572.34;4966234;28;20472;-85
2022/01/12 06:08:34;;;;;;;13.97;10.37;;;;;;;1.93;100.00;103530.97;4960031;28;20227;-85
2022/01/12 06:11:00;;;;;;;14.80;12.17;;;;;;;2.37;100.00;103572.88;4976164;28;20682;-84
2022/01/12 06:13:32;;;;;;;13.27;10.37;;;;;;;3.13;100.00;103666.13;4985570;28;20200;-84
2022/01/12 06:16:05;;;;;;;12.93;10.20;;;;;;;2.85;100.00;103688.78;4992725;28;20429;-87
2022/01/12 06:18:52;;;;;;;11.70;10.40;;;;;;;3.10;100.00;103728.16;5001837;28;20496;-87
2022/01/12 06:21:49;;;;;;;12.83;10.17;;;;;;;2.49;100.00;103678.25;4985694;28;20452;-89
2022/01/12 06:24:15;;;;;;;14.23;10.27;;;;;;;2.75;100.00;103671.63;4984441;28;20445;-85
2022/01/12 06:26:50;;;;;;;12.10;8.90;;;;;;;2.18;100.00;103587.06;4986853;28;20428;-83
2022/01/12 06:31:47;;;;;;;11.30;8.53;;;;;;;1.73;100.00;103537.22;4981580;28;20440;-85
2022/01/12 06:34:12;;;;;;;9.20;7.70;;;;;;;2.22;100.00;103636.28;4986167;28;20514;-84
2022/01/12 06:36:40;;;;;;;10.03;8.57;;;;;;;3.05;100.00;103735.47;4968754;28;20952;-83
2022/01/12 06:39:09;;;;;;;13.83;8.67;;;;;;;2.72;100.00;103738.91;4984093;28;20209;-84
2022/01/12 06:41:36;;;;;;;9.57;6.70;;;;;;;1.91;100.00;103596.34;4964470;28;20528;-85
2022/01/12 06:44:02;;;;;;;8.47;7.57;;;;;;;1.20;100.00;103517.72;4983414;28;20441;-82
2022/01/12 06:46:30;;;;;;;7.93;6.43;;;;;;;2.48;100.00;103709.16;4982220;28;21884;-83
2022/01/12 06:48:56;;;;;;;8.03;7.00;;;;;;;1.83;100.00;103572.91;4984555;28;20791;-84
2022/01/12 06:51:22;;;;;;;8.10;7.30;;;;;;;2.70;100.00;103732.81;4981517;28;20491;-75
2022/01/12 06:53:47;;;;;;;9.60;7.60;;;;;;;2.99;100.00;103743.75;4963771;28;20434;-84
2022/01/12 06:56:19;;;;;;;9.30;7.73;;;;;;;2.29;100.00;103628.91;4982989;28;20193;-83
2022/01/12 06:58:45;;;;;;;10.10;8.03;;;;;;;2.74;100.00;103720.25;4984280;28;20189;-83
2022/01/12 07:01:13;;;;;;;9.73;8.33;;;;;;;2.71;100.00;103715.97;4957222;28;20563;-84
2022/01/12 07:03:39;;;;;;;10.90;8.83;;;;;;;3.03;100.00;103760.34;4974163;28;20472;-81
2022/01/12 07:06:05;;;;;;;8.90;8.00;;;;;;;1.37;100.00;103511.63;4983981;28;20479;-83
2022/01/12 07:08:36;;;;;;;9.60;8.07;;;;;;;2.58;100.00;103680.44;4983713;28;21060;-85
2022/01/12 07:11:02;;;;;;;12.43;9.00;;;;;;;2.24;100.00;103625.63;4981709;28;20213;-85
2022/01/12 07:13:27;;;;;;;9.93;8.60;;;;;;;3.05;100.00;103755.84;4979833;28;20798;-84
2022/01/12 07:15:53;;;;;;;9.70;8.53;;;;;;;1.77;100.00;103554.69;4962579;28;20180;-84
2022/01/12 07:18:21;;;;;;;9.93;7.90;;;;;;;2.56;100.00;103657.59;4962851;28;20731;-85
2022/01/12 07:20:46;;;;;;;8.00;7.00;;;;;;;2.25;100.00;103640.56;4981355;28;20717;-84
2022/01/12 07:23:12;;;;;;;9.70;8.77;;;;;;;1.05;100.00;103481.44;4985249;28;20433;-85
2022/01/12 07:25:37;;;;;;;13.37;8.97;;;;;;;1.42;100.00;103543.13;4966625;28;20173;-83
2022/01/12 07:28:03;;;;;;;8.07;7.30;;;;;;;2.69;100.00;103724.94;4982331;28;20217;-85
2022/01/12 07:30:29;;;;;;;8.33;7.53;;;;;;;1.81;100.00;103611.81;4981881;28;20264;-84
2022/01/12 07:32:54;;;;;;;8.83;7.93;;;;;;;1.81;100.00;103603.88;4964776;28;20565;-84
2022/01/12 07:35:20;;;;;;;9.37;8.27;;;;;;;1.33;100.00;103545.31;4979795;28;20190;-84
2022/01/12 07:37:46;;;;;;;10.00;8.07;;;;;;;2.09;100.00;103703.16;4976848;28;20252;-85
2022/01/12 07:40:12;;;;;;;9.73;7.63;;;;;;;3.02;100.00;103791.31;4963926;28;20492;-83
2022/01/12 07:42:38;;;;;;;7.87;7.07;;;;;;;2.74;100.00;103809.53;4981429;28;20444;-84
2022/01/12 07:45:04;;;;;;;9.43;7.17;;;;;;;2.58;100.00;103838.59;4975624;28;20452;-84
2022/01/12 07:47:34;;;;;;;7.60;6.90;;;;;;;2.51;100.00;103835.34;4960703;28;20565;-86
2022/01/12 07:50:00;;;;;;;8.23;7.43;;;;;;;1.69;100.00;103689.16;4976983;28;20453;-87
2022/01/12 07:52:27;;;;;;;6.77;6.07;;;;;;;1.74;100.00;103690.66;4970816;28;20535;-84
2022/01/12 07:54:52;;;;;;;7.30;6.50;;;;;;;2.01;100.00;103781.16;4980142;28;20459;-86
2022/01/12 07:57:18;;;;;;;12.97;6.60;;;;;;;1.53;100.00;103684.56;4959454;28;20441;-84
2022/01/12 07:59:44;;;;;;;7.20;5.93;;;;;;;2.16;100.00;103815.81;4983283;28;20712;-84
2022/01/12 08:02:11;;;;;;;6.53;5.70;;;;;;;1.17;100.00;103704.72;4980448;28;20444;-84
2022/01/12 08:04:39;;;;;;;7.57;6.80;;;;;;;2.12;100.00;103817.75;4977799;28;20437;-84
2022/01/12 08:07:10;;;;;;;8.00;6.83;;;;;;;2.24;100.00;103798.63;4976974;28;20440;-83
2022/01/12 08:09:39;;;;;;;7.53;6.50;;;;;;;1.43;100.00;103683.25;4981332;28;20460;-85
2022/01/12 08:12:05;;;;;;;7.47;6.77;;;;;;;1.77;100.00;103747.88;4964142;28;20441;-83
2022/01/12 08:14:31;;;;;;;7.10;6.40;;;;;;;1.79;100.00;103852.75;4981272;28;20433;-83
2022/01/12 08:16:57;;;;;;;24.00;6.70;;;;;;;1.26;100.00;103709.59;4976249;28;20940;-81
2022/01/12 08:19:24;;;;;;;7.00;6.40;;;;;;;1.82;100.00;103825.25;4970932;28;20213;-83
2022/01/12 08:21:52;;;;;;;21.30;6.33;;;;;;;2.00;100.00;103820.94;4971535;28;23966;-85
2022/01/12 08:24:18;;;;;;;6.43;5.83;;;;;;;1.43;100.00;103680.63;4977792;28;20568;-87
2022/01/12 08:26:44;;;;;;;7.20;6.10;;;;;;;1.31;100.00;103697.03;4979675;28;20445;-86
2022/01/12 08:29:12;;;;;;;8.33;6.30;;;;;;;1.38;100.00;103703.75;4981182;28;20510;-86
2022/01/12 08:31:38;;;;;;;7.40;6.70;;;;;;;1.67;100.00;103788.91;4979769;28;20221;-85
2022/01/12 08:34:04;;;;;;;9.70;7.57;;;;;;;1.51;100.00;103778.16;4982998;28;20437;-85
2022/01/12 08:36:29;;;;;;;15.20;8.33;;;;;;;2.02;100.00;103851.69;4980308;28;20186;-85
2022/01/12 08:38:57;;;;;;;9.10;8.30;;;;;;;0.43;100.00;103677.00;4983443;28;20511;-84
2022/01/12 08:41:23;;;;;;;11.50;8.00;;;;;;;1.35;100.00;103820.25;4981330;28;20206;-83
2022/01/12 08:43:49;;;;;;;14.47;7.73;;;;;;;0.22;100.00;103609.22;4980970;28;20528;-84
2022/01/12 08:46:15;;;;;;;48.07;7.13;;;;;;;0.47;100.00;103708.56;4961986;28;20444;-85
2022/01/12 08:48:40;;;;;;;11.90;7.73;;;;;;;1.88;100.00;103863.84;4982038;28;20256;-86
2022/01/12 08:51:06;;;;;;;7.30;6.57;;;;;;;1.87;100.00;103841.81;4977136;28;20221;-86
2022/01/12 08:53:31;;;;;;;16.43;6.50;;;;;;;1.06;100.00;103731.63;4964916;28;20217;-84
2022/01/12 08:55:57;;;;;;;9.63;6.10;;;;;;;1.06;100.00;103782.69;4979068;28;20209;-85
2022/01/12 08:58:22;;;;;;;11.67;6.07;;;;;;;1.73;100.00;103875.97;4964297;28;20991;-85
2022/01/12 09:00:48;;;;;;;12.93;6.80;;;;;;;1.29;100.00;103775.56;4954087;28;20304;-84
2022/01/12 09:03:13;;;;;;;7.47;5.60;;;;;;;0.35;100.00;103614.88;4980333;28;20182;-84
2022/01/12 09:05:39;;;;;;;7.97;6.10;;;;;;;2.08;100.00;103900.03;4964333;28;20190;-84
2022/01/12 09:08:06;;;;;;;8.10;5.27;;;;;;;1.17;100.00;103784.91;4950873;28;20302;-83
2022/01/12 09:10:32;;;;;;;6.73;5.73;;;;;;;1.80;100.00;103874.78;4989493;23;20505;-74
2022/01/12 09:12:58;;;;;;;7.30;5.93;;;;;;;1.79;100.00;103833.34;4981692;28;20454;-75
2022/01/12 09:15:25;;;;;;;5.90;5.23;;;;;;;1.70;100.00;103816.09;4983958;28;20823;-75
2022/01/12 09:17:52;;;;;;;7.30;5.90;;;;;;;1.60;100.00;103813.94;4983846;28;20456;-75
2022/01/12 09:20:19;;;;;;;6.20;5.43;;;;;;;1.83;100.00;103826.16;4981101;28;20984;-75
2022/01/12 09:22:44;;;;;;;11.30;6.53;;;;;;;1.91;100.00;103855.75;4967344;28;20441;-75
2022/01/12 09:25:10;;;;;;;9.93;5.70;;;;;;;1.55;100.00;103772.63;4965531;28;20448;-75
2022/01/12 09:27:37;;;;;;;9.93;6.10;;;;;;;2.35;100.00;103898.78;4978071;28;20584;-74
2022/01/12 09:30:05;;;;;;;8.83;5.70;;;;;;;2.12;100.00;103793.06;4976470;28;20519;-74
2022/01/12 09:32:30;;;;;;;10.73;6.20;;;;;;;2.80;100.00;103905.50;4963870;28;21250;-75
2022/01/12 09:34:56;;;;;;;9.73;5.47;;;;;;;2.86;100.00;103912.31;4982755;28;20436;-75
2022/01/12 09:37:21;;;;;;;6.50;5.33;;;;;;;1.28;100.00;103657.50;4982033;28;20221;-75
2022/01/12 09:39:47;;;;;;;14.03;6.17;;;;;;;2.43;100.00;103827.78;4973177;28;21679;-75
2022/01/12 09:42:12;;;;;;;6.60;5.33;;;;;;;2.51;100.00;103798.25;4980290;28;20722;-75
2022/01/12 09:44:43;;;;;;;9.10;5.03;;;;;;;3.32;100.00;103908.28;4978831;28;20185;-75
2022/01/12 09:47:08;;;;;;;8.27;5.60;;;;;;;1.75;100.00;103699.44;4980912;28;20202;-75
2022/01/12 09:49:34;;;;;;;12.20;7.23;;;;;;;2.30;100.00;103825.75;4971401;28;20468;-75
2022/01/12 09:52:00;;;;;;;9.70;6.10;;;;;;;3.23;100.00;103916.72;4971442;28;20557;-75
2022/01/12 09:54:27;;;;;;;8.93;6.00;;;;;;;3.06;100.00;103927.28;4976514;28;20256;-75
2022/01/12 09:56:52;;;;;;;8.77;6.37;;;;;;;3.20;100.00;103927.47;4982188;28;20216;-75
2022/01/12 09:59:18;;;;;;;10.63;7.10;;;;;;;2.45;100.00;103770.25;4976861;28;20487;-74
2022/01/12 10:01:45;;;;;;;11.80;7.40;;;;;;;2.37;100.00;103747.72;4962200;28;20229;-75
2022/01/12 10:04:18;;;;;;;13.93;6.77;;;;;;;3.63;100.00;103928.84;4983734;28;20177;-75
2022/01/12 10:06:47;;;;;;;12.80;6.40;;;;;;;3.58;100.00;103922.06;4963145;28;20456;-75
2022/01/12 10:09:14;;;;;;;12.03;6.57;;;;;;;3.62;100.00;103928.94;4969749;28;20433;-75
2022/01/12 10:11:50;;;;;;;11.87;6.50;;;;;;;3.69;100.00;103933.00;4959274;28;20437;-75
2022/01/12 10:14:16;;;;;;;9.77;6.40;;;;;;;3.05;100.00;103844.22;4982377;28;21051;-75
2022/01/12 10:16:50;;;;;;;11.33;6.33;;;;;;;3.78;100.00;103948.44;4978318;28;20445;-75
2022/01/12 10:19:24;;;;;;;9.83;6.27;;;;;;;2.99;100.00;103794.13;4980805;28;20188;-75
2022/01/12 10:21:50;;;;;;;9.57;6.20;;;;;;;2.33;100.00;103696.69;4975448;28;21008;-76
2022/01/12 10:24:18;;;;;;;13.00;6.13;;;;;;;2.66;100.00;103754.22;4983991;28;20571;-76
2022/01/12 10:26:45;;;;;;;10.60;6.90;;;;;;;2.27;100.00;103681.09;4982370;28;20186;-75
2022/01/12 10:29:11;;;;;;;9.03;6.57;;;;;;;3.94;100.00;103921.13;4979732;28;20441;-75
2022/01/12 10:31:57;;;;;;;8.43;6.03;;;;;;;3.91;100.00;103906.22;4978511;28;20469;-75
2022/01/12 10:34:47;;;;;;;10.33;6.50;;;;;;;3.98;100.00;103896.13;4978848;28;20528;-75
2022/01/12 10:37:18;;;;;;;7.70;5.77;;;;;;;3.97;100.00;103907.69;4983722;28;20555;-75
2022/01/12 10:39:46;;;;;;;10.03;6.80;;;;;;;4.05;100.00;103910.78;4975815;28;20567;-76
2022/01/12 10:42:13;;;;;;;7.30;6.30;;;;;;;3.07;100.00;103749.53;4980253;28;20444;-75
2022/01/12 10:44:41;;;;;;;11.50;7.10;;;;;;;3.93;100.00;103896.34;4982249;28;20552;-75
2022/01/12 10:47:21;;;;;;;9.93;6.17;;;;;;;3.53;100.00;103839.16;4978651;28;20542;-75
2022/01/12 10:49:56;;;;;;;12.10;7.40;;;;;;;4.10;100.00;103908.75;4959951;28;20452;-76
2022/01/12 10:52:30;;;;;;;10.30;6.63;;;;;;;3.31;100.00;103794.31;4981189;28;20480;-75
2022/01/12 10:55:03;;;;;;;13.73;7.23;;;;;;;3.42;100.00;103807.88;4979647;28;20521;-75
2022/01/12 10:57:32;;;;;;;12.60;7.00;;;;;;;3.67;100.00;103857.03;4976931;28;20591;-75
2022/01/12 11:00:05;;;;;;;15.80;7.10;;;;;;;4.14;100.00;103914.75;4977393;28;20469;-76
2022/01/12 11:02:31;;;;;;;12.33;7.13;;;;;;;2.63;100.00;103792.38;4981233;28;20965;-74
2022/01/12 11:04:58;;;;;;;11.50;7.10;;;;;;;3.49;100.00;103917.22;4966060;28;20495;-75
2022/01/12 11:07:28;;;;;;;10.63;6.50;;;;;;;2.46;100.00;103768.47;4976655;28;20969;-75
2022/01/12 11:09:56;;;;;;;29.43;7.60;;;;;;;3.39;100.00;103907.06;4985438;28;20544;-75
2022/01/12 11:12:21;;;;;;;8.77;6.93;;;;;;;3.24;100.00;103845.94;4983220;28;20487;-75
2022/01/12 11:14:47;;;;;;;11.57;7.20;;;;;;;2.78;100.00;103729.78;4985615;28;20432;-75
2022/01/12 11:17:12;;;;;;;8.43;7.57;;;;;;;3.19;100.00;103793.13;4988508;28;20257;-74
2022/01/12 11:19:43;;;;;;;10.33;7.20;;;;;;;3.13;100.00;103801.41;4967943;28;20297;-75
2022/01/12 11:22:21;;;;;;;9.27;7.20;;;;;;;3.05;100.00;103743.44;4983776;28;20186;-75
2022/01/12 11:24:46;;;;;;;11.70;8.90;;;;;;;3.26;100.00;103780.41;4979932;28;20436;-75
2022/01/12 11:27:20;;;;;;;14.60;7.67;;;;;;;4.15;100.00;103885.44;4986206;28;20959;-75
2022/01/12 11:29:46;;;;;;;11.13;8.97;;;;;;;3.64;100.00;103802.28;4984228;28;20209;-75
2022/01/12 11:32:13;;;;;;;14.03;7.90;;;;;;;4.45;100.00;103895.34;4982377;28;20445;-75
2022/01/12 11:34:39;;;;;;;17.77;8.53;;;;;;;3.77;100.00;103781.28;4979148;28;20205;-75
2022/01/12 11:37:13;;;;;;;20.50;9.63;;;;;;;4.03;100.00;103779.88;4985781;28;20960;-76
2022/01/12 11:39:38;;;;;;;16.87;8.80;;;;;;;4.54;100.00;103865.59;4985546;28;20479;-76
2022/01/12 11:42:04;;;;;;;16.40;8.37;;;;;;;4.61;100.00;103839.56;4966226;28;20441;-75
2022/01/12 11:44:34;;;;;;;18.80;8.70;;;;;;;3.91;100.00;103751.31;4975454;28;20216;-75
2022/01/12 11:47:03;;;;;;;15.70;8.50;;;;;;;3.97;100.00;103748.34;4962858;28;20174;-76
2022/01/12 11:49:39;;;;;;;12.50;7.87;;;;;;;4.23;100.00;103762.81;4982378;28;20520;-75
2022/01/12 11:52:15;;;;;;;13.53;7.93;;;;;;;4.88;100.00;103871.69;4983279;28;20475;-75
2022/01/12 11:54:45;;;;;;;19.00;9.30;;;;;;;3.21;100.00;103617.97;4982546;28;20456;-76
2022/01/12 11:57:18;;;;;;;15.70;8.20;;;;;;;4.79;100.00;103882.88;4981585;28;20469;-75
2022/01/12 11:59:54;;;;;;;15.80;8.20;;;;;;;4.75;100.00;103892.81;4983199;28;20515;-75
2022/01/12 12:02:31;;;;;;;14.17;8.40;;;;;;;4.62;100.00;103905.91;4975552;28;20436;-75
2022/01/12 12:04:59;;;;;;;13.67;7.93;;;;;;;3.93;100.00;103797.22;4977595;28;21078;-74
2022/01/12 12:07:26;;;;;;;14.80;8.43;;;;;;;4.49;100.00;103924.34;4981253;28;20449;-75
2022/01/12 12:09:57;;;;;;;10.60;7.13;;;;;;;4.19;100.00;103920.69;4982799;28;20468;-75
2022/01/12 12:12:33;;;;;;;12.43;7.23;;;;;;;4.07;100.00;103909.75;4980232;28;20976;-74
2022/01/12 12:15:02;;;;;;;12.63;6.50;;;;;;;3.55;100.00;103847.91;4983438;28;20429;-75
2022/01/12 12:17:30;;;;;;;8.43;6.50;;;;;;;3.85;100.00;103925.13;4985193;28;20431;-74
2022/01/12 12:19:57;;;;;;;12.73;7.07;;;;;;;3.42;100.00;103850.34;4976758;28;20476;-74
2022/01/12 12:22:26;;;;;;;12.00;7.07;;;;;;;3.90;100.00;103909.78;4969198;28;20445;-75
2022/01/12 12:25:01;;;;;;;9.50;7.77;;;;;;;3.28;100.00;103783.84;4975414;28;20437;-75
2022/01/12 12:27:29;;;;;;;16.47;9.40;;;;;;;3.99;100.00;103916.41;4977526;28;20495;-75
2022/01/12 12:29:55;;;;;;;17.97;8.33;;;;;;;4.31;100.00;103898.78;4966349;28;21197;-76
2022/01/12 12:32:34;;;;;;;15.13;8.43;;;;;;;4.32;100.00;103915.59;4972856;28;20816;-75
2022/01/12 12:35:03;;;;;;;17.23;8.93;;;;;;;3.83;100.00;103844.66;4971559;28;20652;-75
2022/01/12 12:37:42;;;;;;;14.07;8.90;;;;;;;3.63;100.00;103795.28;4978005;28;20445;-75
2022/01/12 12:40:29;;;;;;;10.97;7.93;;;;;;;4.51;100.00;103916.28;4977285;28;20568;-75
2022/01/12 12:43:08;;;;;;;14.43;8.20;;;;;;;4.07;100.00;103837.19;4977698;28;20428;-75